createdAt,value
2022-12-01T00:00:12.935Z,3.70
2022-12-01T00:03:15.202Z,3.70
2022-12-01T00:06:20.312Z,3.70
2022-12-01T00:09:40.840Z,3.70
2022-12-01T00:12:43.641Z,3.70
2022-12-01T00:15:45.747Z,3.70
2022-12-01T00:18:50.537Z,3.80
2022-12-01T00:21:52.822Z,3.80
2022-12-01T00:24:54.879Z,3.70
2022-12-01T00:27:57.458Z,3.80
2022-12-01T00:31:00.276Z,3.70
2022-12-01T00:34:05.594Z,3.70
2022-12-01T00:37:10.627Z,3.70
2022-12-01T00:40:13.435Z,3.70
2022-12-01T00:43:15.706Z,3.70
2022-12-01T00:46:18.916Z,3.60
2022-12-01T00:49:21.089Z,3.70
2022-12-01T00:52:23.130Z,3.70
2022-12-01T00:55:25.400Z,3.70
2022-12-01T00:58:27.927Z,3.70
2022-12-01T01:01:29.990Z,3.70
2022-12-01T01:04:34.513Z,3.70
2022-12-01T01:07:37.113Z,3.60
2022-12-01T01:10:40.893Z,3.60
2022-12-01T01:13:42.943Z,3.60
2022-12-01T01:16:45.021Z,3.60
2022-12-01T01:19:47.698Z,3.60
2022-12-01T01:22:50.026Z,3.60
2022-12-01T01:25:52.380Z,3.60
2022-12-01T01:28:57.741Z,3.70
2022-12-01T01:31:59.761Z,3.70
2022-12-01T01:35:01.805Z,3.60
2022-12-01T01:38:03.876Z,3.70
2022-12-01T01:41:06.975Z,3.60
2022-12-01T01:45:00.333Z,3.60
2022-12-01T01:48:03.785Z,3.60
2022-12-01T01:51:06.463Z,3.60
2022-12-01T01:54:15.709Z,3.70
2022-12-01T01:57:24.389Z,3.60
2022-12-01T02:00:26.747Z,3.60
2022-12-01T02:03:30.244Z,3.60
2022-12-01T02:06:32.276Z,3.60
2022-12-01T02:09:35.617Z,3.60
2022-12-01T02:13:05.772Z,3.60
2022-12-01T02:16:19.074Z,3.60
2022-12-01T02:19:44.917Z,3.60
2022-12-01T02:23:14.672Z,3.60
2022-12-01T02:26:49.963Z,3.60
2022-12-01T02:30:13.070Z,3.60
2022-12-01T02:33:26.843Z,3.60
2022-12-01T02:36:40.157Z,3.60
2022-12-01T02:40:03.555Z,3.60
2022-12-01T02:43:20.903Z,3.50
2022-12-01T02:46:29.588Z,3.60
2022-12-01T02:49:39.404Z,3.60
2022-12-01T02:52:42.011Z,3.60
2022-12-01T02:55:54.022Z,3.60
2022-12-01T02:58:56.120Z,3.60
2022-12-01T03:02:16.085Z,3.60
2022-12-01T03:05:36.163Z,3.60
2022-12-01T03:08:52.985Z,3.60
2022-12-01T03:12:12.983Z,3.60
2022-12-01T03:15:55.968Z,3.60
2022-12-01T03:19:03.268Z,3.60
2022-12-01T03:22:11.120Z,3.60
2022-12-01T03:25:14.538Z,3.60
2022-12-01T03:28:23.133Z,3.60
2022-12-01T03:31:30.854Z,3.60
2022-12-01T03:34:43.728Z,3.60
2022-12-01T03:38:03.427Z,3.60
2022-12-01T03:41:15.280Z,3.50
2022-12-01T03:44:22.822Z,3.50
2022-12-01T03:47:29.529Z,3.50
2022-12-01T03:50:50.154Z,3.50
2022-12-01T03:54:08.708Z,3.50
2022-12-01T03:57:14.617Z,3.50
2022-12-01T04:00:19.874Z,3.50
2022-12-01T04:03:25.748Z,3.50
2022-12-01T04:06:27.868Z,3.50
2022-12-01T04:09:30.035Z,3.50
2022-12-01T04:12:35.461Z,3.50
2022-12-01T04:15:37.938Z,3.50
2022-12-01T04:18:39.988Z,3.50
2022-12-01T04:21:42.244Z,3.50
2022-12-01T04:24:44.333Z,3.50
2022-12-01T04:27:46.344Z,3.50
2022-12-01T04:30:48.326Z,3.50
2022-12-01T04:33:50.486Z,3.50
2022-12-01T04:36:52.523Z,3.50
2022-12-01T04:39:54.479Z,3.50
2022-12-01T04:42:56.516Z,3.50
2022-12-01T04:45:58.509Z,3.50
2022-12-01T04:49:00.591Z,3.40
2022-12-01T04:52:02.681Z,3.40
2022-12-01T04:55:04.950Z,3.50
2022-12-01T04:58:07.213Z,3.40
2022-12-01T05:01:11.938Z,3.40
2022-12-01T05:04:14.775Z,3.50
2022-12-01T05:07:18.072Z,3.40
2022-12-01T05:10:20.338Z,3.40
2022-12-01T05:13:22.501Z,3.40
2022-12-01T05:16:27.196Z,3.50
2022-12-01T05:19:48.997Z,3.40
2022-12-01T05:23:10.890Z,3.40
2022-12-01T05:26:14.706Z,3.40
2022-12-01T05:29:16.884Z,3.40
2022-12-01T05:32:18.881Z,3.40
2022-12-01T05:35:20.859Z,3.40
2022-12-01T05:38:23.464Z,3.40
2022-12-01T05:41:25.747Z,3.40
2022-12-01T05:44:27.877Z,3.40
2022-12-01T05:47:29.880Z,3.40
2022-12-01T05:50:32.760Z,3.40
2022-12-01T05:53:34.782Z,3.40
2022-12-01T05:56:36.850Z,3.40
2022-12-01T05:59:38.910Z,3.40
2022-12-01T06:02:41.765Z,3.40
2022-12-01T06:05:43.775Z,3.40
2022-12-01T06:08:45.822Z,3.40
2022-12-01T06:11:51.260Z,3.40
2022-12-01T06:14:54.597Z,3.30
2022-12-01T06:17:59.586Z,3.30
2022-12-01T06:21:02.264Z,3.30
2022-12-01T06:24:04.557Z,3.30
2022-12-01T06:27:07.408Z,3.30
2022-12-01T06:30:09.902Z,3.30
2022-12-01T06:33:12.362Z,3.30
2022-12-01T06:36:14.488Z,3.30
2022-12-01T06:39:17.561Z,3.30
2022-12-01T06:42:19.694Z,3.30
2022-12-01T06:45:21.703Z,3.30
2022-12-01T06:48:23.857Z,3.30
2022-12-01T06:51:25.906Z,3.30
2022-12-01T06:54:28.016Z,3.40
2022-12-01T06:57:30.754Z,3.40
2022-12-01T07:00:33.007Z,3.40
2022-12-01T07:03:35.692Z,3.40
2022-12-01T07:06:37.800Z,3.40
2022-12-01T07:09:39.930Z,3.40
2022-12-01T07:12:42.042Z,3.40
2022-12-01T07:15:44.407Z,3.40
2022-12-01T07:18:46.456Z,3.40
2022-12-01T07:21:49.029Z,3.50
2022-12-01T07:24:51.036Z,3.40
2022-12-01T07:27:53.036Z,3.40
2022-12-01T07:31:01.188Z,3.50
2022-12-01T07:34:03.693Z,3.50
2022-12-01T07:37:05.742Z,3.50
2022-12-01T07:40:10.184Z,3.50
2022-12-01T07:43:12.242Z,3.50
2022-12-01T07:46:24.013Z,3.50
2022-12-01T07:49:26.389Z,3.50
2022-12-01T07:52:28.437Z,3.50
2022-12-01T07:55:30.440Z,3.50
2022-12-01T07:58:32.974Z,3.50
2022-12-01T08:01:35.202Z,3.60
2022-12-01T08:04:37.313Z,3.60
2022-12-01T08:07:39.488Z,3.60
2022-12-01T08:10:41.607Z,3.60
2022-12-01T08:13:44.187Z,3.60
2022-12-01T08:16:47.754Z,3.60
2022-12-01T08:19:50.431Z,3.70
2022-12-01T08:22:52.772Z,3.70
2022-12-01T08:26:04.082Z,3.70
2022-12-01T08:29:06.511Z,3.70
2022-12-01T08:32:08.537Z,3.70
2022-12-01T08:35:10.984Z,3.80
2022-12-01T08:38:13.046Z,3.80
2022-12-01T08:41:15.857Z,3.80
2022-12-01T08:44:17.881Z,3.80
2022-12-01T08:47:19.984Z,3.80
2022-12-01T08:50:22.007Z,3.80
2022-12-01T08:53:24.167Z,3.80
2022-12-01T08:56:29.882Z,3.90
2022-12-01T08:59:31.911Z,3.90
2022-12-01T09:02:34.116Z,3.90
2022-12-01T09:05:36.166Z,4.00
2022-12-01T09:08:38.863Z,4.00
2022-12-01T09:11:43.726Z,4.10
2022-12-01T09:14:48.357Z,4.20
2022-12-01T09:17:50.385Z,4.20
2022-12-01T09:20:52.888Z,4.20
2022-12-01T09:23:54.863Z,4.20
2022-12-01T09:26:59.004Z,4.20
2022-12-01T09:30:01.053Z,4.30
2022-12-01T09:33:03.369Z,4.40
2022-12-01T09:36:07.610Z,4.40
2022-12-01T09:39:13.346Z,4.50
2022-12-01T09:42:18.581Z,4.60
2022-12-01T09:45:34.176Z,4.70
2022-12-01T09:48:43.496Z,4.80
2022-12-01T09:51:45.664Z,4.80
2022-12-01T09:54:48.666Z,4.90
2022-12-01T09:57:53.867Z,5.00
2022-12-01T10:00:57.458Z,4.90
2022-12-01T10:04:14.744Z,5.00
2022-12-01T10:07:28.676Z,5.00
2022-12-01T10:10:35.776Z,5.00
2022-12-01T10:13:37.894Z,5.20
2022-12-01T10:16:58.394Z,5.40
2022-12-01T10:20:27.040Z,5.60
2022-12-01T10:23:49.078Z,5.70
2022-12-01T10:27:06.062Z,6.00
2022-12-01T10:30:16.111Z,6.10
2022-12-01T10:33:34.067Z,6.20
2022-12-01T10:36:36.436Z,6.40
2022-12-01T10:39:42.037Z,6.30
2022-12-01T10:42:49.886Z,6.30
2022-12-01T10:45:53.587Z,6.40
2022-12-01T10:49:00.631Z,6.40
2022-12-01T10:52:02.735Z,6.50
2022-12-01T10:55:27.963Z,6.70
2022-12-01T10:58:33.659Z,6.70
2022-12-01T11:01:36.329Z,6.70
2022-12-01T11:04:47.643Z,6.50
2022-12-01T11:07:49.965Z,6.20
2022-12-01T11:10:52.317Z,6.10
2022-12-01T11:13:56.059Z,6.10
2022-12-01T11:17:26.646Z,6.00
2022-12-01T11:20:33.626Z,6.00
2022-12-01T11:23:37.501Z,6.10
2022-12-01T11:26:39.540Z,6.10
2022-12-01T11:29:42.367Z,6.10
2022-12-01T11:32:56.052Z,6.20
2022-12-01T11:35:58.397Z,6.30
2022-12-01T11:39:02.032Z,6.50
2022-12-01T11:42:07.241Z,6.60
2022-12-01T11:45:21.378Z,6.70
2022-12-01T11:48:29.620Z,6.90
2022-12-01T11:51:37.662Z,6.80
2022-12-01T11:54:56.064Z,6.90
2022-12-01T11:58:03.932Z,6.90
2022-12-01T12:01:21.966Z,6.90
2022-12-01T12:04:36.149Z,6.90
2022-12-01T12:07:59.959Z,6.80
2022-12-01T12:11:19.212Z,6.60
2022-12-01T12:14:38.107Z,6.40
2022-12-01T12:18:18.286Z,6.40
2022-12-01T12:21:29.811Z,6.40
2022-12-01T12:24:46.766Z,6.20
2022-12-01T12:28:13.065Z,6.20
2022-12-01T12:31:36.457Z,6.20
2022-12-01T12:34:50.863Z,6.20
2022-12-01T12:38:25.094Z,6.20
2022-12-01T12:41:40.298Z,6.20
2022-12-01T12:45:11.624Z,6.20
2022-12-01T12:49:03.905Z,6.30
2022-12-01T12:52:25.413Z,6.30
2022-12-01T12:55:52.780Z,6.30
2022-12-01T12:59:23.034Z,6.40
2022-12-01T13:02:51.568Z,6.40
2022-12-01T13:06:06.904Z,6.40
2022-12-01T13:09:17.949Z,6.40
2022-12-01T13:12:31.401Z,6.40
2022-12-01T13:15:36.553Z,6.40
2022-12-01T13:18:46.965Z,6.40
2022-12-01T13:21:51.322Z,6.30
2022-12-01T13:24:53.611Z,6.30
2022-12-01T13:27:59.010Z,6.30
2022-12-01T13:31:05.853Z,6.20
2022-12-01T13:34:08.091Z,6.10
2022-12-01T13:37:11.191Z,6.10
2022-12-01T13:40:28.156Z,6.10
2022-12-01T13:43:30.698Z,6.00
2022-12-01T13:46:44.431Z,6.10
2022-12-01T13:49:51.900Z,6.10
2022-12-01T13:53:10.308Z,6.00
2022-12-01T13:56:15.337Z,6.10
2022-12-01T13:59:41.227Z,6.10
2022-12-01T14:02:43.679Z,6.10
2022-12-01T14:05:57.189Z,6.00
2022-12-01T14:09:02.781Z,6.00
2022-12-01T14:12:19.444Z,6.00
2022-12-01T14:15:32.849Z,6.00
2022-12-01T14:18:39.042Z,6.00
2022-12-01T14:21:45.568Z,6.00
2022-12-01T14:24:53.199Z,5.80
2022-12-01T14:27:58.360Z,5.70
2022-12-01T14:31:02.976Z,5.50
2022-12-01T14:34:18.944Z,5.40
2022-12-01T14:37:25.628Z,5.20
2022-12-01T14:40:30.248Z,5.10
2022-12-01T14:43:51.585Z,5.10
2022-12-01T14:47:02.339Z,5.00
2022-12-01T14:50:24.915Z,4.90
2022-12-01T14:53:31.994Z,4.70
2022-12-01T14:56:36.453Z,4.60
2022-12-01T14:59:38.945Z,4.60
2022-12-01T15:03:01.530Z,4.60
2022-12-01T15:06:03.809Z,4.50
2022-12-01T15:09:32.874Z,4.50
2022-12-01T15:12:33.596Z,4.50
2022-12-01T15:15:37.715Z,4.50
2022-12-01T15:18:39.852Z,4.50
2022-12-01T15:21:42.140Z,4.50
2022-12-01T15:24:45.058Z,4.50
2022-12-01T15:28:21.063Z,4.50
2022-12-01T15:31:23.230Z,4.50
2022-12-01T15:34:36.340Z,4.50
2022-12-01T15:37:43.913Z,4.50
2022-12-01T15:41:27.422Z,4.50
2022-12-01T15:44:20.625Z,4.40
2022-12-01T15:47:44.385Z,4.30
2022-12-01T15:50:59.521Z,4.30
2022-12-01T15:54:02.591Z,4.20
2022-12-01T15:57:05.978Z,4.20
2022-12-01T16:00:22.310Z,4.10
2022-12-01T16:03:28.249Z,4.10
2022-12-01T16:06:40.538Z,4.10
2022-12-01T16:10:00.355Z,4.10
2022-12-01T16:13:40.292Z,4.10
2022-12-01T16:16:45.536Z,4.10
2022-12-01T16:19:47.804Z,4.10
2022-12-01T16:23:02.572Z,4.10
2022-12-01T16:26:08.744Z,4.10
2022-12-01T16:29:22.291Z,4.10
2022-12-01T16:32:30.497Z,4.10
2022-12-01T16:35:35.307Z,4.10
2022-12-01T16:38:37.807Z,4.10
2022-12-01T16:41:44.434Z,4.20
2022-12-01T16:44:46.871Z,4.10
2022-12-01T16:47:49.838Z,4.20
2022-12-01T16:50:53.643Z,4.10
2022-12-01T16:53:55.967Z,4.10
2022-12-01T16:56:58.424Z,4.10
2022-12-01T17:00:00.565Z,4.10
2022-12-01T17:03:03.248Z,4.10
2022-12-01T17:06:06.266Z,4.10
2022-12-01T17:09:08.733Z,4.10
2022-12-01T17:12:10.896Z,4.00
2022-12-01T17:15:13.172Z,4.00
2022-12-01T17:18:17.163Z,4.00
2022-12-01T17:21:19.499Z,4.00
2022-12-01T17:24:21.898Z,4.00
2022-12-01T17:27:25.311Z,4.00
2022-12-01T17:30:27.811Z,4.00
2022-12-01T17:33:30.105Z,4.00
2022-12-01T17:36:32.413Z,4.00
2022-12-01T17:39:34.474Z,4.00
2022-12-01T17:42:37.466Z,4.00
2022-12-01T17:45:42.158Z,4.00
2022-12-01T17:48:46.508Z,4.00
2022-12-01T17:51:48.597Z,4.00
2022-12-01T17:54:51.171Z,4.00
2022-12-01T17:57:53.959Z,4.00
2022-12-01T18:00:56.320Z,4.00
2022-12-01T18:03:59.472Z,3.90
2022-12-01T18:07:01.506Z,3.90
2022-12-01T18:10:03.974Z,3.90
2022-12-01T18:13:06.390Z,3.90
2022-12-01T18:16:20.884Z,3.80
2022-12-01T18:19:23.193Z,3.80
2022-12-01T18:22:27.105Z,3.80
2022-12-01T18:25:29.467Z,3.80
2022-12-01T18:28:32.508Z,3.80
2022-12-01T18:31:35.893Z,3.80
2022-12-01T18:34:39.237Z,3.70
2022-12-01T18:37:41.753Z,3.70
2022-12-01T18:40:43.830Z,3.70
2022-12-01T18:43:46.289Z,3.60
2022-12-01T18:46:48.723Z,3.60
2022-12-01T18:49:51.350Z,3.50
2022-12-01T18:52:53.415Z,3.50
2022-12-01T18:55:55.955Z,3.40
2022-12-01T18:59:01.725Z,3.40
2022-12-01T19:02:04.242Z,3.30
2022-12-01T19:05:06.559Z,3.30
2022-12-01T19:08:09.067Z,3.10
2022-12-01T19:11:11.248Z,3.00
2022-12-01T19:14:18.828Z,3.00
2022-12-01T19:17:21.343Z,2.90
2022-12-01T19:20:24.086Z,2.90
2022-12-01T19:23:26.990Z,2.80
2022-12-01T19:26:29.183Z,2.80
2022-12-01T19:29:32.288Z,2.70
2022-12-01T19:32:35.726Z,2.70
2022-12-01T19:35:38.312Z,2.60
2022-12-01T19:38:42.142Z,2.60
2022-12-01T19:41:45.791Z,2.50
2022-12-01T19:44:53.360Z,2.50
2022-12-01T19:47:56.446Z,2.50
2022-12-01T19:50:58.555Z,2.50
2022-12-01T19:54:01.973Z,2.40
2022-12-01T19:57:05.179Z,2.40
2022-12-01T20:00:08.452Z,2.40
2022-12-01T20:03:11.107Z,2.40
2022-12-01T20:06:20.092Z,2.50
2022-12-01T20:09:23.094Z,2.40
2022-12-01T20:12:26.029Z,2.40
2022-12-01T20:15:28.553Z,2.40
2022-12-01T20:18:31.585Z,2.30
2022-12-01T20:21:36.941Z,2.30
2022-12-01T20:24:42.506Z,2.30
2022-12-01T20:27:50.914Z,2.30
2022-12-01T20:30:53.988Z,2.20
2022-12-01T20:33:59.300Z,2.10
2022-12-01T20:37:01.869Z,2.00
2022-12-01T20:40:05.060Z,1.90
2022-12-01T20:43:07.678Z,1.90
2022-12-01T20:46:11.435Z,1.90
2022-12-01T20:49:15.232Z,1.90
2022-12-01T20:52:17.353Z,1.80
2022-12-01T20:55:19.882Z,1.70
2022-12-01T20:58:23.017Z,1.70
2022-12-01T21:01:26.368Z,1.70
2022-12-01T21:04:28.998Z,1.70
2022-12-01T21:07:31.664Z,1.80
2022-12-01T21:10:37.968Z,1.80
2022-12-01T21:13:42.311Z,1.80
2022-12-01T21:16:48.318Z,1.80
2022-12-01T21:20:18.040Z,1.90
2022-12-01T21:23:20.435Z,1.90
2022-12-01T21:26:23.010Z,1.90
2022-12-01T21:29:28.140Z,1.90
2022-12-01T21:32:33.316Z,1.90
2022-12-01T21:35:35.491Z,1.90
2022-12-01T21:38:37.499Z,1.90
2022-12-01T21:41:40.392Z,2.00
2022-12-01T21:44:42.810Z,1.90
2022-12-01T21:47:45.050Z,1.90
2022-12-01T21:50:52.355Z,1.90
2022-12-01T21:53:56.514Z,1.90
2022-12-01T21:56:58.737Z,1.90
2022-12-01T22:00:33.002Z,1.90
2022-12-01T22:03:43.098Z,2.00
2022-12-01T22:06:48.306Z,2.00
2022-12-01T22:09:51.321Z,2.00
2022-12-01T22:12:53.497Z,2.00
2022-12-01T22:15:55.548Z,1.90
2022-12-01T22:18:59.885Z,2.00
2022-12-01T22:22:10.753Z,2.00
2022-12-01T22:25:25.075Z,2.00
2022-12-01T22:28:27.287Z,1.90
2022-12-01T22:31:29.617Z,1.90
2022-12-01T22:34:31.839Z,1.90
2022-12-01T22:37:36.427Z,1.90
2022-12-01T22:40:53.855Z,2.00
2022-12-01T22:43:57.349Z,1.90
2022-12-01T22:47:02.447Z,1.90
2022-12-01T22:50:24.624Z,1.90
2022-12-01T22:53:30.643Z,1.90
2022-12-01T22:56:37.789Z,1.80
2022-12-01T22:59:42.629Z,1.90
2022-12-01T23:02:47.526Z,1.90
2022-12-01T23:05:55.540Z,1.90
2022-12-01T23:08:57.590Z,1.90
2022-12-01T23:12:13.913Z,1.90
2022-12-01T23:15:22.270Z,1.90
2022-12-01T23:18:29.354Z,1.90
2022-12-01T23:21:31.383Z,1.90
2022-12-01T23:24:34.254Z,1.80
2022-12-01T23:27:37.795Z,1.90
2022-12-01T23:30:42.692Z,1.90
2022-12-01T23:33:44.643Z,1.90
2022-12-01T23:36:50.083Z,1.90
2022-12-01T23:39:52.237Z,1.90
2022-12-01T23:42:54.795Z,2.00
2022-12-01T23:46:02.902Z,2.00
2022-12-01T23:49:14.075Z,2.00
2022-12-01T23:52:20.136Z,2.00
2022-12-01T23:55:30.162Z,2.00
2022-12-01T23:58:32.690Z,2.00
